createdAt,value
2022-10-01T00:00:52.775Z,96.38
2022-10-01T00:01:52.795Z,96.38
2022-10-01T00:02:52.810Z,96.38
2022-10-01T00:03:52.756Z,96.38
2022-10-01T00:04:52.799Z,96.38
2022-10-01T00:05:52.727Z,96.48
2022-10-01T00:06:52.738Z,96.48
2022-10-01T00:07:52.715Z,96.58
2022-10-01T00:08:52.670Z,96.58
2022-10-01T00:09:52.647Z,96.48
2022-10-01T00:10:52.648Z,96.48
2022-10-01T00:11:52.626Z,96.48
2022-10-01T00:12:52.646Z,96.48
2022-10-01T00:13:52.606Z,96.48
2022-10-01T00:14:52.611Z,96.48
2022-10-01T00:15:52.587Z,96.58
2022-10-01T00:16:52.691Z,96.58
2022-10-01T00:17:52.650Z,96.58
2022-10-01T00:18:52.588Z,96.58
2022-10-01T00:19:52.592Z,96.48
2022-10-01T00:20:52.606Z,96.38
2022-10-01T00:21:52.524Z,96.23
2022-10-01T00:22:52.542Z,96.28
2022-10-01T00:23:52.565Z,96.28
2022-10-01T00:24:52.535Z,96.38
2022-10-01T00:25:52.475Z,96.44
2022-10-01T00:26:52.474Z,96.44
2022-10-01T00:27:52.507Z,96.44
2022-10-01T00:28:52.436Z,96.44
2022-10-01T00:29:52.464Z,96.54
2022-10-01T00:30:52.414Z,96.54
2022-10-01T00:31:52.496Z,96.54
2022-10-01T00:32:52.426Z,96.54
2022-10-01T00:33:52.402Z,96.54
2022-10-01T00:34:52.374Z,96.54
2022-10-01T00:35:52.385Z,96.54
2022-10-01T00:36:52.384Z,96.44
2022-10-01T00:37:52.374Z,96.44
2022-10-01T00:38:52.334Z,96.33
2022-10-01T00:39:52.315Z,96.23
2022-10-01T00:40:52.322Z,96.03
2022-10-01T00:41:52.371Z,95.82
2022-10-01T00:42:52.332Z,95.72
2022-10-01T00:43:52.274Z,95.72
2022-10-01T00:44:52.262Z,95.76
2022-10-01T00:45:52.326Z,95.87
2022-10-01T00:46:52.238Z,95.87
2022-10-01T00:47:52.225Z,95.87
2022-10-01T00:48:52.240Z,95.97
2022-10-01T00:49:53.331Z,95.87
2022-10-01T00:50:52.198Z,95.87
2022-10-01T00:51:52.191Z,95.87
2022-10-01T00:52:52.183Z,95.76
2022-10-01T00:53:52.160Z,95.76
2022-10-01T00:54:52.154Z,95.66
2022-10-01T00:55:52.129Z,95.66
2022-10-01T00:56:52.149Z,95.56
2022-10-01T00:57:52.127Z,95.46
2022-10-01T00:58:52.111Z,95.25
2022-10-01T00:59:52.080Z,95.25
2022-10-01T01:00:52.114Z,95.20
2022-10-01T01:01:52.227Z,95.20
2022-10-01T01:02:52.047Z,95.20
2022-10-01T01:03:52.058Z,95.20
2022-10-01T01:04:52.026Z,95.20
2022-10-01T01:05:52.019Z,95.29
2022-10-01T01:06:52.005Z,95.40
2022-10-01T01:07:51.998Z,95.40
2022-10-01T01:08:51.979Z,95.29
2022-10-01T01:09:52.007Z,95.29
2022-10-01T01:10:51.968Z,95.20
2022-10-01T01:11:51.975Z,95.20
2022-10-01T01:12:51.927Z,95.20
2022-10-01T01:13:51.948Z,95.29
2022-10-01T01:14:51.924Z,95.29
2022-10-01T01:15:51.963Z,95.29
2022-10-01T01:16:51.888Z,95.29
2022-10-01T01:17:51.897Z,95.29
2022-10-01T01:18:51.882Z,95.40
2022-10-01T01:19:51.874Z,95.44
2022-10-01T01:20:51.847Z,95.44
2022-10-01T01:21:51.853Z,95.54
2022-10-01T01:22:51.826Z,95.54
2022-10-01T01:23:51.816Z,95.54
2022-10-01T01:24:51.837Z,95.54
2022-10-01T01:25:51.786Z,95.54
2022-10-01T01:26:51.797Z,95.54
2022-10-01T01:27:51.818Z,95.54
2022-10-01T01:28:51.776Z,95.65
2022-10-01T01:29:51.757Z,95.75
2022-10-01T01:30:51.779Z,95.86
2022-10-01T01:31:51.724Z,95.95
2022-10-01T01:32:51.759Z,96.06
2022-10-01T01:33:51.765Z,96.16
2022-10-01T01:34:51.692Z,96.26
2022-10-01T01:35:51.696Z,96.26
2022-10-01T01:36:51.697Z,96.37
2022-10-01T01:37:51.643Z,96.47
2022-10-01T01:38:51.672Z,96.47
2022-10-01T01:39:51.642Z,96.47
2022-10-01T01:40:51.675Z,96.47
2022-10-01T01:41:51.602Z,96.47
2022-10-01T01:42:51.622Z,96.47
2022-10-01T01:43:51.611Z,96.47
2022-10-01T01:44:51.575Z,96.47
2022-10-01T01:45:51.582Z,96.37
2022-10-01T01:46:51.551Z,96.16
2022-10-01T01:47:51.551Z,95.95
2022-10-01T01:48:51.561Z,95.95
2022-10-01T01:49:51.561Z,95.95
2022-10-01T01:50:51.523Z,95.95
2022-10-01T01:51:51.549Z,95.95
2022-10-01T01:52:51.514Z,95.86
2022-10-01T01:53:51.478Z,95.75
2022-10-01T01:54:51.495Z,95.65
2022-10-01T01:55:51.449Z,95.65
2022-10-01T01:56:51.441Z,95.54
2022-10-01T01:57:51.446Z,95.44
2022-10-01T01:58:51.428Z,95.44
2022-10-01T01:59:51.420Z,95.44
2022-10-01T02:00:51.456Z,95.34
2022-10-01T02:01:51.472Z,95.34
2022-10-01T02:02:51.436Z,95.34
2022-10-01T02:03:51.358Z,95.24
2022-10-01T02:04:51.366Z,95.28
2022-10-01T02:05:51.337Z,95.24
2022-10-01T02:06:51.367Z,95.18
2022-10-01T02:07:51.328Z,95.07
2022-10-01T02:08:51.308Z,94.87
2022-10-01T02:09:51.315Z,94.87
2022-10-01T02:10:51.279Z,94.98
2022-10-01T02:11:51.265Z,95.07
2022-10-01T02:12:51.286Z,95.07
2022-10-01T02:13:51.287Z,95.07
2022-10-01T02:14:51.266Z,95.07
2022-10-01T02:15:51.325Z,95.18
2022-10-01T02:16:51.288Z,95.23
2022-10-01T02:17:51.264Z,95.23
2022-10-01T02:18:51.185Z,95.23
2022-10-01T02:19:51.173Z,95.32
2022-10-01T02:20:51.167Z,95.43
2022-10-01T02:21:51.145Z,95.43
2022-10-01T02:22:51.144Z,95.43
2022-10-01T02:23:51.154Z,95.43
2022-10-01T02:24:51.120Z,95.53
2022-10-01T02:25:51.131Z,95.53
2022-10-01T02:26:51.094Z,95.53
2022-10-01T02:27:51.113Z,95.53
2022-10-01T02:28:51.070Z,95.53
2022-10-01T02:29:51.081Z,95.53
2022-10-01T02:30:51.105Z,95.53
2022-10-01T02:31:51.053Z,95.53
2022-10-01T02:32:51.052Z,95.53
2022-10-01T02:33:51.059Z,95.53
2022-10-01T02:34:51.071Z,95.47
2022-10-01T02:35:51.061Z,95.43
2022-10-01T02:36:50.993Z,95.47
2022-10-01T02:37:50.991Z,95.47
2022-10-01T02:38:50.962Z,95.37
2022-10-01T02:39:51.015Z,95.27
2022-10-01T02:40:50.963Z,95.37
2022-10-01T02:41:50.922Z,95.57
2022-10-01T02:42:50.912Z,95.68
2022-10-01T02:43:50.911Z,95.78
2022-10-01T02:44:50.900Z,95.89
2022-10-01T02:45:50.951Z,95.78
2022-10-01T02:46:50.870Z,95.68
2022-10-01T02:47:50.850Z,95.68
2022-10-01T02:48:50.826Z,95.68
2022-10-01T02:49:50.816Z,95.78
2022-10-01T02:50:50.820Z,95.89
2022-10-01T02:51:50.806Z,95.98
2022-10-01T02:52:50.784Z,96.09
2022-10-01T02:53:50.757Z,95.98
2022-10-01T02:54:50.748Z,95.98
2022-10-01T02:55:50.736Z,95.98
2022-10-01T02:56:54.243Z,95.98
2022-10-01T02:57:51.726Z,95.98
2022-10-01T02:58:50.705Z,95.98
2022-10-01T02:59:50.708Z,95.98
2022-10-01T03:00:50.687Z,95.89
2022-10-01T03:01:50.920Z,95.89
2022-10-01T03:02:50.694Z,95.78
2022-10-01T03:03:50.653Z,95.57
2022-10-01T03:04:50.654Z,95.47
2022-10-01T03:05:50.623Z,95.47
2022-10-01T03:06:50.622Z,95.47
2022-10-01T03:07:50.613Z,95.47
2022-10-01T03:08:50.594Z,95.47
2022-10-01T03:09:50.602Z,95.47
2022-10-01T03:10:50.585Z,95.47
2022-10-01T03:11:50.570Z,95.47
2022-10-01T03:12:50.554Z,95.37
2022-10-01T03:13:50.536Z,95.21
2022-10-01T03:14:50.523Z,95.01
2022-10-01T03:15:50.551Z,95.01
2022-10-01T03:16:50.509Z,94.90
2022-10-01T03:17:50.482Z,94.80
2022-10-01T03:18:50.487Z,94.80
2022-10-01T03:19:50.461Z,95.01
2022-10-01T03:20:50.460Z,95.15
2022-10-01T03:21:50.470Z,95.36
2022-10-01T03:22:50.431Z,95.56
2022-10-01T03:23:50.431Z,95.56
2022-10-01T03:24:50.428Z,95.46
2022-10-01T03:25:50.417Z,95.46
2022-10-01T03:26:50.422Z,95.46
2022-10-01T03:27:50.470Z,95.46
2022-10-01T03:28:50.390Z,95.46
2022-10-01T03:29:50.360Z,95.36
2022-10-01T03:30:50.349Z,95.25
2022-10-01T03:31:50.428Z,95.15
2022-10-01T03:32:50.340Z,95.15
2022-10-01T03:34:11.329Z,95.15
2022-10-01T03:34:50.296Z,95.15
2022-10-01T03:35:50.287Z,95.05
2022-10-01T03:36:50.268Z,94.95
2022-10-01T03:37:50.289Z,94.64
2022-10-01T03:38:50.258Z,94.54
2022-10-01T03:39:50.239Z,94.43
2022-10-01T03:40:50.238Z,94.43
2022-10-01T03:41:50.216Z,94.33
2022-10-01T03:42:50.200Z,94.33
2022-10-01T03:43:50.210Z,94.43
2022-10-01T03:44:50.185Z,94.43
2022-10-01T03:45:50.230Z,94.43
2022-10-01T03:46:50.176Z,94.43
2022-10-01T03:47:50.147Z,94.43
2022-10-01T03:48:50.147Z,94.48
2022-10-01T03:49:50.146Z,94.43
2022-10-01T03:50:50.127Z,94.58
2022-10-01T03:51:50.116Z,94.68
2022-10-01T03:52:50.138Z,94.48
2022-10-01T03:53:50.106Z,94.27
2022-10-01T03:54:50.085Z,94.27
2022-10-01T03:55:50.095Z,94.33
2022-10-01T03:56:50.055Z,94.27
2022-10-01T03:57:50.055Z,94.27
2022-10-01T03:58:50.055Z,94.17
2022-10-01T03:59:50.021Z,94.07
2022-10-01T04:00:50.026Z,94.17
2022-10-01T04:01:50.073Z,94.07
2022-10-01T04:02:50.210Z,94.17
2022-10-01T04:03:49.977Z,94.17
2022-10-01T04:04:50.003Z,94.12
2022-10-01T04:05:49.964Z,94.23
2022-10-01T04:06:49.941Z,94.12
2022-10-01T04:07:49.966Z,94.12
2022-10-01T04:08:49.919Z,94.12
2022-10-01T04:09:49.916Z,94.23
2022-10-01T04:10:49.983Z,94.23
2022-10-01T04:11:49.971Z,94.33
2022-10-01T04:12:49.861Z,94.33
2022-10-01T04:13:49.881Z,94.12
2022-10-01T04:14:49.854Z,94.12
2022-10-01T04:15:49.891Z,94.12
2022-10-01T04:16:49.839Z,94.02
2022-10-01T04:17:49.860Z,94.02
2022-10-01T04:18:49.804Z,94.02
2022-10-01T04:19:49.801Z,94.02
2022-10-01T04:20:49.770Z,94.02
2022-10-01T04:21:49.782Z,94.02
2022-10-01T04:22:49.750Z,94.02
2022-10-01T04:23:49.753Z,94.02
2022-10-01T04:24:49.752Z,93.92
2022-10-01T04:25:49.738Z,93.92
2022-10-01T04:26:49.707Z,93.82
2022-10-01T04:27:49.777Z,93.82
2022-10-01T04:28:49.688Z,93.51
2022-10-01T04:29:49.678Z,93.51
2022-10-01T04:30:49.691Z,93.61
2022-10-01T04:31:49.667Z,93.40
2022-10-01T04:32:49.651Z,93.40
2022-10-01T04:33:49.639Z,92.79
2022-10-01T04:34:49.667Z,92.48
2022-10-01T04:35:49.638Z,92.38
2022-10-01T04:36:49.612Z,92.38
2022-10-01T04:37:49.597Z,92.48
2022-10-01T04:38:49.588Z,92.69
2022-10-01T04:39:49.588Z,92.73
2022-10-01T04:40:49.721Z,92.73
2022-10-01T04:41:49.582Z,92.73
2022-10-01T04:42:49.547Z,92.63
2022-10-01T04:43:49.506Z,92.63
2022-10-01T04:44:49.511Z,92.63
2022-10-01T04:45:49.495Z,92.73
2022-10-01T04:46:49.566Z,92.83
2022-10-01T04:47:49.495Z,92.83
2022-10-01T04:48:49.477Z,92.83
2022-10-01T04:49:49.466Z,92.93
2022-10-01T04:50:49.486Z,92.73
2022-10-01T04:51:49.437Z,92.73
2022-10-01T04:52:49.495Z,92.73
2022-10-01T04:53:49.491Z,92.73
2022-10-01T04:54:49.425Z,92.73
2022-10-01T04:55:49.384Z,92.83
2022-10-01T04:56:49.414Z,92.93
2022-10-01T04:57:49.403Z,93.04
2022-10-01T04:58:58.667Z,93.08
2022-10-01T04:59:49.337Z,93.14
2022-10-01T05:00:49.367Z,92.87
2022-10-01T05:01:49.364Z,92.67
2022-10-01T05:02:49.327Z,92.46
2022-10-01T05:03:49.287Z,92.36
2022-10-01T05:04:49.287Z,92.46
2022-10-01T05:05:49.266Z,92.46
2022-10-01T05:06:49.269Z,92.57
2022-10-01T05:07:49.258Z,92.67
2022-10-01T05:08:49.250Z,92.67
2022-10-01T05:09:49.237Z,92.77
2022-10-01T05:10:49.216Z,92.97
2022-10-01T05:11:49.196Z,92.97
2022-10-01T05:12:49.216Z,92.97
2022-10-01T05:13:49.178Z,92.87
2022-10-01T05:14:49.200Z,92.87
2022-10-01T05:15:49.230Z,92.77
2022-10-01T05:16:49.148Z,92.67
2022-10-01T05:17:49.134Z,92.57
2022-10-01T05:18:49.140Z,92.57
2022-10-01T05:19:49.108Z,92.57
2022-10-01T05:20:49.104Z,92.67
2022-10-01T05:21:49.092Z,92.77
2022-10-01T05:22:49.083Z,92.87
2022-10-01T05:23:49.092Z,92.87
2022-10-01T05:24:49.060Z,92.87
2022-10-01T05:25:49.061Z,92.87
2022-10-01T05:26:49.037Z,92.87
2022-10-01T05:27:49.067Z,92.97
2022-10-01T05:28:49.027Z,93.08
2022-10-01T05:29:49.004Z,92.97
2022-10-01T05:30:49.005Z,92.87
2022-10-01T05:31:49.082Z,92.77
2022-10-01T05:32:48.962Z,92.97
2022-10-01T05:33:48.961Z,93.08
2022-10-01T05:34:53.482Z,93.08
2022-10-01T05:35:48.953Z,93.29
2022-10-01T05:36:48.943Z,93.29
2022-10-01T05:37:48.913Z,93.49
2022-10-01T05:38:48.898Z,93.59
2022-10-01T05:39:48.889Z,93.59
2022-10-01T05:40:48.884Z,93.70
2022-10-01T05:41:48.881Z,93.70
2022-10-01T05:42:48.849Z,93.70
2022-10-01T05:43:48.840Z,93.70
2022-10-01T05:44:48.832Z,93.80
2022-10-01T05:45:48.849Z,94.01
2022-10-01T05:46:48.808Z,94.11
2022-10-01T05:47:48.830Z,94.11
2022-10-01T05:48:48.778Z,94.21
2022-10-01T05:49:48.797Z,94.31
2022-10-01T05:50:48.757Z,94.37
2022-10-01T05:51:48.769Z,94.48
2022-10-01T05:52:48.738Z,94.58
2022-10-01T05:53:50.543Z,94.68
2022-10-01T05:54:48.727Z,94.78
2022-10-01T05:55:48.727Z,94.68
2022-10-01T05:56:48.694Z,94.58
2022-10-01T05:57:48.696Z,94.48
2022-10-01T05:58:48.666Z,94.58
2022-10-01T05:59:48.669Z,94.58
2022-10-01T06:00:48.657Z,94.68
2022-10-01T06:01:48.711Z,94.78
2022-10-01T06:02:48.759Z,94.74
2022-10-01T06:03:48.614Z,94.64
2022-10-01T06:04:48.619Z,94.43
2022-10-01T06:05:48.598Z,94.33
2022-10-01T06:06:48.577Z,94.23
2022-10-01T06:07:48.590Z,94.02
2022-10-01T06:08:48.554Z,93.92
2022-10-01T06:09:48.558Z,94.02
2022-10-01T06:10:48.533Z,94.02
2022-10-01T06:11:48.525Z,93.98
2022-10-01T06:12:48.513Z,94.08
2022-10-01T06:13:48.513Z,93.98
2022-10-01T06:14:48.484Z,94.08
2022-10-01T06:15:48.482Z,94.18
2022-10-01T06:16:48.533Z,94.08
2022-10-01T06:17:48.453Z,93.98
2022-10-01T06:18:48.452Z,93.98
2022-10-01T06:19:48.458Z,93.98
2022-10-01T06:20:48.424Z,93.87
2022-10-01T06:21:48.423Z,93.77
2022-10-01T06:22:48.393Z,93.77
2022-10-01T06:23:48.409Z,93.77
2022-10-01T06:24:48.384Z,93.46
2022-10-01T06:25:48.362Z,93.36
2022-10-01T06:26:48.353Z,93.32
2022-10-01T06:27:48.355Z,93.32
2022-10-01T06:28:48.348Z,93.32
2022-10-01T06:29:48.333Z,93.42
2022-10-01T06:30:48.321Z,93.42
2022-10-01T06:31:48.322Z,93.42
2022-10-01T06:32:48.281Z,93.32
2022-10-01T06:33:48.272Z,93.12
2022-10-01T06:34:48.259Z,93.12
2022-10-01T06:35:48.265Z,93.12
2022-10-01T06:36:48.229Z,93.12
2022-10-01T06:37:48.230Z,93.12
2022-10-01T06:38:48.211Z,93.21
2022-10-01T06:39:48.227Z,93.32
2022-10-01T06:40:48.206Z,93.42
2022-10-01T06:41:48.178Z,93.42
2022-10-01T06:42:48.168Z,93.42
2022-10-01T06:43:48.172Z,93.42
2022-10-01T06:44:48.139Z,93.27
2022-10-01T06:45:48.188Z,93.17
2022-10-01T06:46:48.132Z,93.27
2022-10-01T06:47:48.110Z,93.27
2022-10-01T06:48:48.105Z,93.27
2022-10-01T06:49:48.100Z,93.27
2022-10-01T06:50:48.079Z,93.38
2022-10-01T06:51:48.076Z,93.48
2022-10-01T06:52:48.058Z,93.59
2022-10-01T06:53:48.044Z,93.68
2022-10-01T06:54:48.037Z,93.59
2022-10-01T06:55:48.016Z,93.64
2022-10-01T06:56:48.041Z,93.54
2022-10-01T06:57:48.006Z,93.44
2022-10-01T06:58:47.986Z,93.33
2022-10-01T06:59:47.993Z,93.33
2022-10-01T07:00:48.027Z,93.02
2022-10-01T07:01:48.007Z,93.23
2022-10-01T07:02:47.989Z,93.13
2022-10-01T07:03:47.932Z,93.23
2022-10-01T07:04:47.925Z,93.33
2022-10-01T07:05:47.921Z,93.54
2022-10-01T07:06:47.893Z,93.60
2022-10-01T07:07:47.893Z,93.60
2022-10-01T07:08:47.866Z,93.39
2022-10-01T07:09:47.863Z,93.49
2022-10-01T07:10:47.842Z,93.60
2022-10-01T07:11:47.843Z,93.70
2022-10-01T07:12:47.832Z,93.49
2022-10-01T07:13:52.328Z,93.29
2022-10-01T07:14:48.794Z,92.88
2022-10-01T07:15:47.797Z,92.68
2022-10-01T07:16:47.818Z,92.68
2022-10-01T07:17:47.808Z,92.74
2022-10-01T07:18:47.752Z,92.94
2022-10-01T07:19:47.749Z,92.94
2022-10-01T07:20:47.733Z,92.53
2022-10-01T07:21:47.731Z,92.53
2022-10-01T07:22:47.722Z,92.63
2022-10-01T07:23:47.710Z,92.74
2022-10-01T07:24:47.691Z,92.74
2022-10-01T07:25:47.683Z,92.94
2022-10-01T07:26:47.660Z,92.83
2022-10-01T07:27:47.696Z,92.12
2022-10-01T07:28:47.671Z,92.02
2022-10-01T07:29:47.633Z,91.97
2022-10-01T07:30:47.623Z,91.77
2022-10-01T07:31:47.638Z,91.97
2022-10-01T07:32:47.682Z,91.97
2022-10-01T07:33:48.599Z,91.87
2022-10-01T07:34:47.580Z,91.67
2022-10-01T07:35:47.572Z,91.56
2022-10-01T07:36:47.549Z,91.56
2022-10-01T07:37:47.546Z,91.26
2022-10-01T07:38:47.531Z,90.95
2022-10-01T07:39:47.529Z,91.31
2022-10-01T07:40:47.508Z,91.31
2022-10-01T07:41:47.499Z,91.52
2022-10-01T07:42:47.492Z,91.42
2022-10-01T07:43:47.469Z,91.31
2022-10-01T07:44:47.484Z,91.22
2022-10-01T07:45:47.515Z,90.50
2022-10-01T07:46:47.439Z,90.60
2022-10-01T07:47:47.424Z,90.97
2022-10-01T07:48:47.417Z,91.38
2022-10-01T07:49:47.438Z,91.78
2022-10-01T07:50:47.396Z,91.78
2022-10-01T07:51:47.425Z,91.38
2022-10-01T07:52:47.385Z,91.07
2022-10-01T07:53:47.356Z,91.48
2022-10-01T07:54:47.346Z,91.48
2022-10-01T07:55:47.356Z,91.58
2022-10-01T07:56:47.326Z,91.89
2022-10-01T07:57:47.350Z,91.85
2022-10-01T07:58:47.295Z,91.64
2022-10-01T07:59:47.306Z,91.54
2022-10-01T08:00:47.327Z,90.82
2022-10-01T08:01:47.317Z,90.72
2022-10-01T08:02:47.256Z,89.59
2022-10-01T08:03:47.256Z,89.09
2022-10-01T08:04:47.238Z,89.70
2022-10-01T08:05:47.214Z,90.11
2022-10-01T08:06:47.245Z,88.26
2022-10-01T08:07:47.214Z,88.47
2022-10-01T08:08:47.184Z,89.18
2022-10-01T08:09:47.189Z,89.59
2022-10-01T08:10:47.171Z,89.09
2022-10-01T08:11:47.156Z,88.17
2022-10-01T08:12:47.144Z,88.06
2022-10-01T08:13:47.136Z,86.73
2022-10-01T08:14:47.141Z,86.32
2022-10-01T08:15:47.102Z,86.94
2022-10-01T08:16:47.148Z,87.61
2022-10-01T08:17:47.082Z,87.30
2022-10-01T08:18:47.083Z,87.20
2022-10-01T08:19:47.079Z,87.30
2022-10-01T08:20:47.066Z,87.51
2022-10-01T08:21:47.031Z,86.69
2022-10-01T08:22:47.055Z,86.49
2022-10-01T08:23:47.041Z,86.69
2022-10-01T08:24:47.010Z,87.20
2022-10-01T08:25:47.006Z,87.41
2022-10-01T08:26:46.980Z,86.59
2022-10-01T08:27:47.035Z,85.97
2022-10-01T08:28:46.960Z,85.97
2022-10-01T08:29:46.962Z,86.08
2022-10-01T08:30:46.952Z,84.65
2022-10-01T08:31:46.956Z,85.16
2022-10-01T08:32:46.917Z,85.26
2022-10-01T08:33:46.927Z,85.32
2022-10-01T08:34:46.909Z,84.81
2022-10-01T08:35:46.884Z,84.71
2022-10-01T08:36:46.882Z,84.50
2022-10-01T08:37:46.896Z,84.41
2022-10-01T08:38:46.849Z,84.71
2022-10-01T08:39:46.848Z,85.02
2022-10-01T08:40:46.828Z,84.41
2022-10-01T08:41:46.818Z,84.50
2022-10-01T08:42:46.811Z,84.41
2022-10-01T08:43:46.800Z,84.81
2022-10-01T08:44:46.778Z,85.02
2022-10-01T08:45:46.817Z,85.02
2022-10-01T08:46:46.760Z,85.12
2022-10-01T08:47:46.747Z,84.81
2022-10-01T08:48:46.747Z,84.09
2022-10-01T08:49:46.729Z,83.89
2022-10-01T08:50:46.721Z,84.20
2022-10-01T08:51:46.795Z,84.09
2022-10-01T08:52:46.695Z,83.79
2022-10-01T08:53:46.678Z,83.04
2022-10-01T08:54:46.728Z,83.04
2022-10-01T08:55:46.691Z,83.04
2022-10-01T08:56:46.646Z,83.54
2022-10-01T08:57:46.637Z,83.54
2022-10-01T08:58:46.626Z,83.44
2022-10-01T08:59:46.614Z,84.16
2022-10-01T09:00:46.670Z,84.57
2022-10-01T09:01:46.683Z,84.77
2022-10-01T09:02:46.585Z,83.95
2022-10-01T09:03:46.566Z,83.34
2022-10-01T09:04:46.657Z,83.85
2022-10-01T09:05:46.545Z,82.93
2022-10-01T09:06:46.542Z,82.93
2022-10-01T09:07:46.515Z,83.14
2022-10-01T09:08:46.562Z,83.54
2022-10-01T09:09:46.524Z,83.00
2022-10-01T09:10:46.492Z,82.49
2022-10-01T09:11:46.508Z,82.39
2022-10-01T09:12:46.588Z,82.49
2022-10-01T09:13:50.123Z,83.10
2022-10-01T09:14:46.464Z,83.40
2022-10-01T09:15:46.474Z,83.61
2022-10-01T09:16:46.505Z,84.08
2022-10-01T09:17:46.414Z,82.79
2022-10-01T09:18:46.405Z,82.75
2022-10-01T09:19:47.983Z,82.65
2022-10-01T09:20:46.373Z,82.96
2022-10-01T09:21:46.354Z,84.28
2022-10-01T09:22:46.354Z,82.96
2022-10-01T09:23:46.335Z,82.75
2022-10-01T09:24:46.333Z,83.98
2022-10-01T09:25:46.323Z,83.78
2022-10-01T09:26:46.298Z,83.98
2022-10-01T09:27:46.411Z,83.57
2022-10-01T09:28:46.290Z,83.47
2022-10-01T09:29:46.285Z,83.87
2022-10-01T09:30:46.270Z,82.96
2022-10-01T09:31:46.329Z,83.47
2022-10-01T09:32:46.240Z,83.47
2022-10-01T09:33:46.230Z,83.26
2022-10-01T09:34:46.220Z,83.16
2022-10-01T09:35:46.224Z,83.67
2022-10-01T09:36:46.209Z,83.26
2022-10-01T09:37:46.184Z,83.98
2022-10-01T09:38:46.163Z,84.08
2022-10-01T09:39:46.189Z,84.90
2022-10-01T09:40:47.099Z,85.61
2022-10-01T09:41:46.142Z,83.26
2022-10-01T09:42:46.150Z,83.37
2022-10-01T09:43:46.161Z,83.87
2022-10-01T09:44:46.158Z,85.21
2022-10-01T09:45:46.254Z,84.80
2022-10-01T09:46:46.093Z,85.10
2022-10-01T09:47:46.058Z,85.41
2022-10-01T09:48:46.070Z,84.80
2022-10-01T09:49:46.048Z,85.61
2022-10-01T09:50:46.019Z,85.21
2022-10-01T09:51:46.153Z,85.21
2022-10-01T09:52:45.999Z,85.45
2022-10-01T09:53:46.008Z,86.06
2022-10-01T09:54:45.982Z,85.96
2022-10-01T09:55:45.968Z,86.67
2022-10-01T09:56:45.960Z,86.16
2022-10-01T09:57:46.030Z,86.26
2022-10-01T09:58:45.927Z,86.98
2022-10-01T09:59:45.931Z,87.70
2022-10-01T10:00:45.909Z,87.70
2022-10-01T10:01:46.045Z,88.10
2022-10-01T10:02:49.148Z,88.00
2022-10-01T10:03:45.889Z,88.31
2022-10-01T10:04:45.856Z,88.82
2022-10-01T10:05:45.879Z,89.23
2022-10-01T10:06:45.837Z,89.43
2022-10-01T10:07:45.829Z,89.84
2022-10-01T10:08:45.828Z,90.35
2022-10-01T10:09:45.817Z,90.86
2022-10-01T10:10:45.797Z,90.49
2022-10-01T10:11:45.780Z,89.98
2022-10-01T10:12:45.767Z,90.08
2022-10-01T10:13:45.778Z,90.29
2022-10-01T10:14:45.746Z,90.59
2022-10-01T10:15:45.758Z,90.80
2022-10-01T10:16:45.729Z,91.00
2022-10-01T10:17:45.715Z,91.41
2022-10-01T10:18:45.696Z,91.41
2022-10-01T10:19:45.744Z,91.52
2022-10-01T10:20:45.694Z,91.61
2022-10-01T10:21:45.676Z,91.72
2022-10-01T10:22:45.644Z,91.72
2022-10-01T10:23:45.654Z,91.52
2022-10-01T10:24:45.693Z,91.61
2022-10-01T10:25:45.620Z,91.82
2022-10-01T10:26:45.637Z,92.23
2022-10-01T10:27:45.655Z,91.92
2022-10-01T10:28:45.649Z,91.82
2022-10-01T10:29:45.591Z,91.92
2022-10-01T10:30:45.556Z,92.02
2022-10-01T10:31:45.908Z,92.23
2022-10-01T10:32:46.877Z,92.43
2022-10-01T10:33:45.524Z,92.74
2022-10-01T10:34:45.703Z,93.05
2022-10-01T10:35:45.510Z,93.35
2022-10-01T10:36:45.493Z,93.55
2022-10-01T10:37:45.503Z,93.66
2022-10-01T10:38:45.466Z,93.76
2022-10-01T10:39:45.454Z,93.86
2022-10-01T10:40:45.453Z,93.96
2022-10-01T10:41:45.431Z,94.07
2022-10-01T10:42:45.430Z,94.27
2022-10-01T10:43:45.411Z,94.27
2022-10-01T10:44:45.410Z,94.27
2022-10-01T10:45:45.390Z,94.17
2022-10-01T10:46:46.334Z,94.27
2022-10-01T10:47:45.371Z,94.27
2022-10-01T10:48:45.350Z,94.17
2022-10-01T10:49:45.367Z,94.17
2022-10-01T10:50:45.343Z,93.86
2022-10-01T10:51:45.431Z,93.76
2022-10-01T10:52:45.892Z,93.76
2022-10-01T10:53:45.319Z,93.86
2022-10-01T10:54:45.299Z,93.76
2022-10-01T10:55:45.310Z,93.66
2022-10-01T10:56:45.284Z,93.76
2022-10-01T10:57:45.292Z,94.01
2022-10-01T10:58:52.794Z,94.11
2022-10-01T10:59:45.231Z,94.37
2022-10-01T11:00:45.242Z,94.27
2022-10-01T11:01:45.271Z,94.27
2022-10-01T11:02:45.220Z,94.01
2022-10-01T11:03:45.194Z,93.60
2022-10-01T11:04:45.191Z,93.60
2022-10-01T11:05:45.173Z,93.80
2022-10-01T11:06:45.173Z,94.01
2022-10-01T11:07:45.143Z,94.21
2022-10-01T11:08:45.133Z,94.42
2022-10-01T11:09:45.132Z,94.58
2022-10-01T11:10:45.112Z,94.73
2022-10-01T11:11:45.096Z,94.68
2022-10-01T11:12:45.102Z,94.78
2022-10-01T11:13:45.088Z,94.89
2022-10-01T11:14:45.063Z,94.98
2022-10-01T11:15:45.093Z,95.09
2022-10-01T11:16:45.041Z,95.09
2022-10-01T11:17:45.057Z,95.19
2022-10-01T11:18:45.020Z,95.29
2022-10-01T11:19:45.018Z,95.09
2022-10-01T11:20:44.990Z,94.82
2022-10-01T11:21:45.002Z,94.62
2022-10-01T11:22:44.979Z,94.52
2022-10-01T11:23:44.971Z,94.52
2022-10-01T11:24:44.960Z,94.62
2022-10-01T11:25:44.970Z,94.73
2022-10-01T11:26:44.930Z,94.93
2022-10-01T11:27:45.025Z,95.13
2022-10-01T11:28:44.922Z,95.34
2022-10-01T11:29:44.910Z,95.54
2022-10-01T11:30:44.893Z,95.64
2022-10-01T11:31:44.918Z,95.64
2022-10-01T11:32:44.874Z,95.75
2022-10-01T11:33:44.872Z,95.75
2022-10-01T11:34:44.841Z,95.85
2022-10-01T11:35:44.841Z,96.05
2022-10-01T11:36:44.837Z,96.05
2022-10-01T11:37:44.816Z,96.15
2022-10-01T11:38:44.807Z,95.85
2022-10-01T11:39:44.798Z,95.03
2022-10-01T11:40:44.778Z,94.67
2022-10-01T11:41:44.757Z,94.67
2022-10-01T11:42:44.748Z,94.77
2022-10-01T11:43:44.767Z,94.87
2022-10-01T11:44:44.756Z,95.07
2022-10-01T11:45:44.716Z,95.18
2022-10-01T11:46:44.737Z,95.38
2022-10-01T11:47:44.697Z,95.48
2022-10-01T11:48:44.693Z,95.59
2022-10-01T11:49:44.686Z,95.69
2022-10-01T11:50:44.665Z,95.69
2022-10-01T11:51:44.654Z,95.79
2022-10-01T11:52:44.636Z,95.79
2022-10-01T11:53:44.643Z,95.79
2022-10-01T11:54:44.614Z,95.79
2022-10-01T11:55:44.604Z,95.79
2022-10-01T11:56:44.595Z,95.53
2022-10-01T11:57:44.589Z,95.73
2022-10-01T11:58:44.593Z,95.53
2022-10-01T11:59:44.556Z,95.63
2022-10-01T12:00:44.556Z,95.84
2022-10-01T12:01:44.596Z,96.14
2022-10-01T12:02:44.526Z,96.25
2022-10-01T12:03:44.522Z,96.34
2022-10-01T12:04:44.533Z,96.45
2022-10-01T12:05:44.536Z,96.45
2022-10-01T12:06:44.501Z,96.14
2022-10-01T12:07:44.472Z,96.04
2022-10-01T12:08:44.455Z,96.14
2022-10-01T12:09:44.450Z,96.25
2022-10-01T12:10:44.452Z,96.25
2022-10-01T12:11:44.422Z,96.25
2022-10-01T12:12:44.410Z,96.34
2022-10-01T12:13:44.413Z,96.55
2022-10-01T12:14:44.398Z,96.55
2022-10-01T12:15:44.416Z,96.66
2022-10-01T12:16:44.408Z,96.66
2022-10-01T12:17:44.357Z,96.55
2022-10-01T12:18:44.351Z,96.34
2022-10-01T12:19:44.333Z,96.34
2022-10-01T12:20:44.320Z,96.45
2022-10-01T12:21:44.311Z,96.55
2022-10-01T12:22:44.319Z,96.66
2022-10-01T12:23:44.289Z,96.75
2022-10-01T12:24:44.271Z,96.86
2022-10-01T12:25:44.273Z,96.96
2022-10-01T12:26:44.257Z,96.96
2022-10-01T12:27:44.385Z,96.96
2022-10-01T12:28:47.898Z,96.86
2022-10-01T12:29:45.221Z,96.96
2022-10-01T12:30:44.209Z,97.16
2022-10-01T12:31:44.238Z,97.27
2022-10-01T12:32:44.181Z,97.27
2022-10-01T12:33:44.178Z,97.27
2022-10-01T12:34:44.179Z,97.27
2022-10-01T12:35:44.157Z,97.27
2022-10-01T12:36:44.140Z,97.37
2022-10-01T12:37:44.139Z,96.75
2022-10-01T12:38:44.171Z,96.55
2022-10-01T12:39:44.108Z,96.66
2022-10-01T12:40:44.097Z,96.75
2022-10-01T12:41:44.080Z,96.75
2022-10-01T12:42:44.080Z,96.75
2022-10-01T12:43:44.250Z,96.55
2022-10-01T12:44:44.166Z,96.45
2022-10-01T12:45:44.036Z,96.55
2022-10-01T12:46:44.088Z,96.34
2022-10-01T12:47:44.007Z,96.34
2022-10-01T12:48:43.996Z,96.34
2022-10-01T12:49:44.013Z,96.55
2022-10-01T12:50:43.975Z,96.55
2022-10-01T12:51:43.975Z,96.45
2022-10-01T12:52:43.956Z,96.45